Terminal Aerodrome Forecast
Issued by NWS

Home | Current Version | Previous Version | Text Only | Print | Product List | Glossary On
Versions: 1 2 3 4 5 6 7 8 9 10 11 12 13
000
FTUS45 KABQ 032342
TAFGUP
TAF
KGUP 032342Z 0400/0424 26009G16KT P6SM VCTS SCT070CB
     FM040300 20006KT P6SM VCSH BKN050
     FM041000 18006KT P6SM VCSH BKN030
      TEMPO 0411/0413 5SM -SHRA BR
     FM041700 22010KT P6SM VCTS BKN050CB=

USA.gov is the U.S. government's official web portal to all federal, state and local government web resources and services.